Time;durP1;ratioP1;P1;durP2;ratioP2;P2;SDS_P1;SDS_P2;PMS_P1;PMS_P2;Temp;Humidity;BMP_temperature;BMP_pressure;BME280_temperature;BME280_humidity;BME280_pressure;Samples;Min_cycle;Max_cycle;Signal;HPM_P1;HPM_P2
2024/01/31 00:02:14;;;;;;;1.90;1.80;;;;;;;-3.95;100.00;54783.47;5032629;28;20179;-71
2024/01/31 00:04:39;;;;;;;2.63;2.43;;;;;;;-3.59;100.00;55146.84;5032805;28;20637;-70
2024/01/31 00:07:04;;;;;;;2.10;2.00;;;;;;;-3.95;100.00;55380.94;5033053;28;20263;-70
2024/01/31 00:09:30;;;;;;;1.30;1.30;;;;;;;-3.77;100.00;54986.28;5032755;28;20651;-69
2024/01/31 00:11:55;;;;;;;6.47;2.50;;;;;;;-4.00;100.00;54925.19;5033065;28;20258;-70
2024/01/31 00:14:21;;;;;;;1.60;1.50;;;;;;;-3.83;100.00;54897.38;5031337;28;20614;-71
2024/01/31 00:16:47;;;;;;;1.40;1.30;;;;;;;-4.14;100.00;54940.59;5032433;28;20616;-70
2024/01/31 00:19:12;;;;;;;1.67;1.57;;;;;;;-3.88;100.00;54753.31;5032737;28;20175;-70
2024/01/31 00:21:38;;;;;;;1.30;1.30;;;;;;;-4.21;100.00;54575.09;5038717;28;20179;-70
2024/01/31 00:24:04;;;;;;;1.80;1.70;;;;;;;-3.85;100.00;54213.22;5032530;28;20182;-71
2024/01/31 00:26:30;;;;;;;1.90;1.80;;;;;;;-3.80;100.00;54078.91;5032363;28;20171;-70
2024/01/31 00:28:55;;;;;;;1.67;1.57;;;;;;;-3.87;100.00;54216.66;5032601;28;20697;-70
2024/01/31 00:31:20;;;;;;;2.23;2.13;;;;;;;-4.03;100.00;54250.13;5030889;28;20175;-71
2024/01/31 00:33:46;;;;;;;1.97;1.87;;;;;;;-4.05;100.00;53708.63;5031182;28;20234;-70
2024/01/31 00:36:12;;;;;;;1.97;1.87;;;;;;;-4.34;100.00;53642.00;5031199;28;20829;-70
2024/01/31 00:38:37;;;;;;;1.60;1.50;;;;;;;-4.41;100.00;53798.53;5031180;28;20835;-70
2024/01/31 00:41:04;;;;;;;1.47;1.40;;;;;;;-4.26;100.00;53911.25;5031052;28;20179;-70
2024/01/31 00:43:30;;;;;;;1.40;1.37;;;;;;;-4.33;100.00;53935.97;5030882;28;20182;-70
2024/01/31 00:45:55;;;;;;;1.50;1.40;;;;;;;-3.89;100.00;53906.00;5032109;28;20547;-70
2024/01/31 00:48:21;;;;;;;2.00;1.90;;;;;;;-4.46;100.00;54139.59;5032334;28;20183;-70
2024/01/31 00:50:46;;;;;;;2.37;2.20;;;;;;;-4.40;100.00;53471.31;5032709;28;20172;-70
2024/01/31 00:53:11;;;;;;;1.50;1.40;;;;;;;-4.18;100.00;53361.66;5032520;28;20285;-70
2024/01/31 00:55:37;;;;;;;1.77;1.67;;;;;;;-4.19;100.00;52960.72;5032466;28;20175;-70
2024/01/31 00:58:02;;;;;;;1.53;1.43;;;;;;;-4.09;100.00;52346.44;5032388;28;20177;-69
2024/01/31 01:00:28;;;;;;;1.50;1.40;;;;;;;-3.99;100.00;52472.25;5032076;28;20172;-70
2024/01/31 01:02:53;;;;;;;1.30;1.30;;;;;;;-4.09;100.00;52373.31;5032534;28;20148;-70
2024/01/31 01:05:20;;;;;;;1.70;1.60;;;;;;;-4.07;100.00;52823.47;5032481;28;20160;-71
2024/01/31 01:07:45;;;;;;;1.80;1.70;;;;;;;-4.35;100.00;52295.91;5032292;28;20163;-71
2024/01/31 01:10:15;;;;;;;1.50;1.40;;;;;;;-4.09;100.00;52074.88;5032205;28;20176;-70
2024/01/31 01:12:42;;;;;;;1.70;1.60;;;;;;;-3.96;100.00;52251.84;5031785;28;20198;-70
2024/01/31 01:15:08;;;;;;;2.77;2.50;;;;;;;-4.14;100.00;52418.59;5031508;28;20193;-71
2024/01/31 01:17:34;;;;;;;1.80;1.70;;;;;;;-4.41;100.00;52098.59;5031806;28;20599;-71
2024/01/31 01:20:00;;;;;;;1.67;1.57;;;;;;;-4.12;100.00;51047.63;5032083;28;20164;-70
2024/01/31 01:22:25;;;;;;;1.40;1.30;;;;;;;-4.56;100.00;51194.88;5031901;28;20171;-69
2024/01/31 01:24:52;;;;;;;1.80;1.70;;;;;;;-4.02;100.00;51514.78;5031579;28;20263;-70
2024/01/31 01:27:18;;;;;;;1.70;1.60;;;;;;;-5.27;100.00;51850.72;5031829;28;20172;-71
2024/01/31 01:29:43;;;;;;;1.40;1.30;;;;;;;-4.22;100.00;52002.44;5038888;28;20697;-71
2024/01/31 01:32:08;;;;;;;1.60;1.50;;;;;;;-4.38;100.00;52703.09;5032038;28;20180;-71
2024/01/31 01:34:34;;;;;;;1.60;1.50;;;;;;;-4.13;100.00;53113.47;5031544;28;20211;-70
2024/01/31 01:36:59;;;;;;;2.70;2.37;;;;;;;-4.68;100.00;52554.00;5031677;28;20176;-70
2024/01/31 01:39:25;;;;;;;1.80;1.70;;;;;;;-4.66;100.00;51949.78;5030301;28;20197;-69
2024/01/31 01:41:50;;;;;;;1.33;1.30;;;;;;;-4.52;100.00;51238.50;5031357;28;20179;-71
2024/01/31 01:44:16;;;;;;;2.23;1.70;;;;;;;-4.32;100.00;51145.09;5031412;28;20187;-70
2024/01/31 01:46:43;;;;;;;1.57;1.47;;;;;;;-4.60;100.00;51669.97;5031522;28;20263;-71
2024/01/31 01:49:10;;;;;;;2.03;1.93;;;;;;;-4.13;100.00;51794.97;5031352;28;20188;-70
2024/01/31 01:51:36;;;;;;;1.50;1.40;;;;;;;-4.41;100.00;51958.91;5031278;28;20179;-70
2024/01/31 01:54:02;;;;;;;1.60;1.50;;;;;;;-4.21;100.00;52324.16;5031065;28;20249;-70
2024/01/31 01:56:28;;;;;;;1.70;1.60;;;;;;;-4.53;100.00;52604.16;5031277;28;20594;-71
2024/01/31 01:58:55;;;;;;;2.00;1.90;;;;;;;-4.11;100.00;52316.59;5030762;28;20168;-70
2024/01/31 02:01:21;;;;;;;1.60;1.50;;;;;;;-4.00;100.00;53068.78;5031189;28;20199;-70
2024/01/31 02:03:53;;;;;;;2.07;1.87;;;;;;;-4.34;100.00;53024.81;5030941;28;20679;-70
2024/01/31 02:06:19;;;;;;;1.60;1.50;;;;;;;-4.25;100.00;53939.59;5030959;28;20209;-70
2024/01/31 02:08:44;;;;;;;1.87;1.77;;;;;;;-4.54;100.00;53860.47;5031013;28;20207;-71
2024/01/31 02:11:10;;;;;;;1.23;1.23;;;;;;;-4.29;100.00;53795.75;5030968;28;20171;-70
2024/01/31 02:13:35;;;;;;;1.53;1.43;;;;;;;-4.36;100.00;53513.16;5030586;28;20205;-70
2024/01/31 02:16:00;;;;;;;1.43;1.33;;;;;;;-4.41;100.00;53316.66;5031147;28;20545;-70
2024/01/31 02:18:27;;;;;;;2.00;1.90;;;;;;;-4.86;100.00;53127.88;5031052;28;20172;-72
2024/01/31 02:20:54;;;;;;;2.07;1.97;;;;;;;-4.62;100.00;52995.34;5030702;28;20175;-70
2024/01/31 02:23:20;;;;;;;1.77;1.67;;;;;;;-4.51;100.00;52852.22;5029234;28;20631;-70
2024/01/31 02:25:45;;;;;;;2.87;2.57;;;;;;;-4.35;100.00;52869.69;5030756;28;20627;-70
2024/01/31 02:28:11;;;;;;;1.53;1.43;;;;;;;-4.42;100.00;53196.31;5030515;28;20190;-70
2024/01/31 02:30:36;;;;;;;1.70;1.60;;;;;;;-4.49;100.00;53343.94;5030915;28;20186;-70
2024/01/31 02:33:02;;;;;;;1.50;1.40;;;;;;;-4.48;100.00;53135.59;5030606;28;20222;-70
2024/01/31 02:35:30;;;;;;;2.30;2.20;;;;;;;-4.54;100.00;52175.25;5030587;28;20588;-69
2024/01/31 02:37:57;;;;;;;1.30;1.30;;;;;;;-4.85;100.00;51281.00;5036802;28;20217;-70
2024/01/31 02:40:23;;;;;;;1.80;1.70;;;;;;;-4.89;100.00;50706.13;5030821;28;20167;-71
2024/01/31 02:42:48;;;;;;;1.63;1.53;;;;;;;-5.04;100.00;49846.00;5030699;28;20205;-70
2024/01/31 02:45:14;;;;;;;1.53;1.43;;;;;;;-4.62;100.00;49763.13;5031029;28;20172;-70
2024/01/31 02:47:39;;;;;;;1.53;1.43;;;;;;;-4.67;100.00;50031.97;5029211;28;20559;-71
2024/01/31 02:50:05;;;;;;;1.70;1.60;;;;;;;-4.62;100.00;49994.53;5030387;28;20269;-70
2024/01/31 02:52:30;;;;;;;3.00;1.97;;;;;;;-4.72;100.00;50091.31;5030356;28;20206;-70
2024/01/31 02:54:58;;;;;;;2.97;2.37;;;;;;;-5.12;100.00;49855.78;5030408;28;20249;-71
2024/01/31 02:57:23;;;;;;;1.60;1.50;;;;;;;-5.22;100.00;49675.19;5030595;28;20182;-70
2024/01/31 02:59:49;;;;;;;1.50;1.40;;;;;;;-5.18;100.00;49559.44;5030731;28;20187;-70
2024/01/31 03:02:15;;;;;;;1.50;1.40;;;;;;;-5.23;100.00;49242.25;5030406;28;20239;-70
2024/01/31 03:04:41;;;;;;;1.60;1.50;;;;;;;-5.05;100.00;48966.38;5030403;28;20178;-71
2024/01/31 03:07:06;;;;;;;2.03;1.90;;;;;;;-5.41;100.00;48715.19;5030415;28;20239;-70
2024/01/31 03:09:32;;;;;;;2.10;2.00;;;;;;;-5.41;100.00;46631.16;5028904;28;20193;-70
2024/01/31 03:11:57;;;;;;;1.57;1.47;;;;;;;-5.35;100.00;45655.53;5029991;28;20215;-70
2024/01/31 03:14:23;;;;;;;1.40;1.30;;;;;;;-4.97;100.00;45041.53;5030087;28;20284;-70
2024/01/31 03:16:48;;;;;;;1.83;1.73;;;;;;;-5.31;100.00;44561.47;5033225;28;20693;-71
2024/01/31 03:19:15;;;;;;;1.60;1.50;;;;;;;-4.94;100.00;45091.66;5034177;28;20178;-70
2024/01/31 03:21:40;;;;;;;1.40;1.30;;;;;;;-5.11;100.00;44276.84;5034134;28;20213;-70
2024/01/31 03:24:06;;;;;;;2.20;2.00;;;;;;;-5.24;100.00;43084.81;5034201;28;20614;-71
2024/01/31 03:26:31;;;;;;;3.20;2.40;;;;;;;-4.84;100.00;39473.41;5034078;28;20172;-71
2024/01/31 03:28:58;;;;;;;1.50;1.40;;;;;;;-5.27;100.00;37131.72;5033807;28;20187;-69
2024/01/31 03:31:23;;;;;;;1.30;1.20;;;;;;;-5.55;100.00;34583.59;5032266;28;20632;-70
2024/01/31 03:33:49;;;;;;;1.80;1.70;;;;;;;-4.76;100.00;33688.84;5033393;28;20253;-70
2024/01/31 03:36:14;;;;;;;1.80;1.70;;;;;;;-4.86;100.00;32417.72;5033639;28;20178;-70
2024/01/31 03:38:39;;;;;;;1.90;1.80;;;;;;;-4.69;100.00;32112.66;5033230;28;20586;-70
2024/01/31 03:41:06;;;;;;;1.73;1.63;;;;;;;-4.76;100.00;32107.81;5033292;28;20180;-70
2024/01/31 03:43:32;;;;;;;1.50;1.40;;;;;;;-4.82;100.00;31788.25;5033801;28;20174;-71
2024/01/31 03:45:58;;;;;;;1.70;1.60;;;;;;;-5.05;100.00;31457.97;5042208;28;20171;-69
2024/01/31 03:48:23;;;;;;;1.70;1.60;;;;;;;-5.48;100.00;30799.81;5033390;28;20627;-70
2024/01/31 03:50:48;;;;;;;1.77;1.67;;;;;;;-4.81;100.00;30525.09;5033513;28;20262;-70
2024/01/31 03:53:14;;;;;;;1.40;1.30;;;;;;;-4.86;100.00;30521.69;5032992;28;20253;-69
2024/01/31 03:55:40;;;;;;;1.50;1.40;;;;;;;-4.67;100.00;28638.22;5033371;28;20253;-69
2024/01/31 03:58:05;;;;;;;1.70;1.60;;;;;;;-5.11;100.00;30190.81;5033376;28;20177;-70
2024/01/31 04:00:31;;;;;;;1.57;1.47;;;;;;;-5.12;100.00;29559.16;5033298;28;20172;-70
2024/01/31 04:02:56;;;;;;;2.30;1.97;;;;;;;-5.07;100.00;29561.88;5033395;28;20265;-70
2024/01/31 04:05:22;;;;;;;1.87;1.77;;;;;;;-4.77;100.00;29895.50;5031287;28;20697;-71
2024/01/31 04:07:47;;;;;;;1.93;1.83;;;;;;;-4.72;100.00;29582.69;5031430;28;20338;-69
2024/01/31 04:10:13;;;;;;;1.60;1.50;;;;;;;-4.63;100.00;29272.53;5029654;28;20171;-71
2024/01/31 04:12:38;;;;;;;1.63;1.53;;;;;;;-4.56;100.00;30224.56;5029933;28;20195;-71
2024/01/31 04:15:04;;;;;;;2.00;1.90;;;;;;;-4.98;100.00;31462.09;5031043;28;20201;-70
2024/01/31 04:17:30;;;;;;;2.33;2.20;;;;;;;-4.61;100.00;32433.66;5030985;28;20198;-69
2024/01/31 04:19:55;;;;;;;1.53;1.43;;;;;;;-4.48;100.00;33390.97;5032428;28;20583;-69
2024/01/31 04:22:20;;;;;;;1.93;1.83;;;;;;;-4.63;100.00;33381.31;5033038;28;20179;-70
2024/01/31 04:24:46;;;;;;;1.60;1.50;;;;;;;-4.69;100.00;32744.59;5031955;28;20222;-70
2024/01/31 04:27:11;;;;;;;1.43;1.33;;;;;;;-4.83;100.00;31787.59;5033006;28;20187;-70
2024/01/31 04:29:40;;;;;;;2.13;1.93;;;;;;;-4.60;100.00;31485.91;5032943;28;20247;-71
2024/01/31 04:32:08;;;;;;;2.57;2.37;;;;;;;-4.86;100.00;31785.38;5033067;28;20654;-70
2024/01/31 04:34:38;;;;;;;1.20;1.20;;;;;;;-4.57;100.00;35600.03;5033066;28;20258;-70
2024/01/31 04:37:03;;;;;;;1.60;1.50;;;;;;;-4.62;100.00;35913.00;5032754;28;20171;-69
2024/01/31 04:39:29;;;;;;;1.60;1.50;;;;;;;-4.67;100.00;35593.00;5032505;28;20183;-69
2024/01/31 04:41:54;;;;;;;1.20;1.20;;;;;;;-4.81;100.00;37798.44;5032586;28;20624;-70
2024/01/31 04:44:19;;;;;;;1.70;1.60;;;;;;;-5.10;100.00;37460.91;5032643;28;20179;-70
2024/01/31 04:46:45;;;;;;;1.57;1.47;;;;;;;-4.96;100.00;37470.84;5032517;28;20207;-70
2024/01/31 04:49:11;;;;;;;1.77;1.67;;;;;;;-5.02;100.00;36833.59;5032381;28;20234;-71
2024/01/31 04:51:43;;;;;;;1.73;1.63;;;;;;;-5.55;100.00;37428.13;5032563;28;20232;-71
2024/01/31 04:54:08;;;;;;;1.63;1.53;;;;;;;-5.21;100.00;36820.19;5019783;28;20192;-69
2024/01/31 04:56:35;;;;;;;1.50;1.40;;;;;;;-5.43;100.00;37120.78;5013199;28;20535;-71
2024/01/31 04:59:01;;;;;;;2.07;1.97;;;;;;;-5.49;100.00;36483.75;5012888;28;20215;-69
2024/01/31 05:01:27;;;;;;;1.43;1.33;;;;;;;-5.43;100.00;37436.97;5012502;28;20340;-70
2024/01/31 05:03:52;;;;;;;1.50;1.40;;;;;;;-5.49;100.00;39772.66;5012563;28;20216;-70
2024/01/31 05:06:18;;;;;;;1.90;1.80;;;;;;;-5.52;100.00;39856.47;5010842;28;20273;-71
2024/01/31 05:08:43;;;;;;;1.53;1.43;;;;;;;-5.27;100.00;40076.19;5012299;28;20306;-71
2024/01/31 05:11:12;;;;;;;2.00;1.80;;;;;;;-5.55;100.00;40039.53;5011639;28;20188;-69
2024/01/31 05:13:38;;;;;;;1.70;1.60;;;;;;;-5.10;100.00;41393.41;5012251;28;20194;-69
2024/01/31 05:16:08;;;;;;;1.70;1.60;;;;;;;-5.13;100.00;41531.66;5012419;28;20571;-71
2024/01/31 05:18:33;;;;;;;1.77;1.67;;;;;;;-5.14;100.00;42691.66;5012518;28;20229;-70
2024/01/31 05:21:00;;;;;;;2.03;1.93;;;;;;;-5.66;100.00;42080.38;5012378;28;20176;-70
2024/01/31 05:23:25;;;;;;;1.97;1.87;;;;;;;-5.60;100.00;40708.38;5012516;28;20190;-69
2024/01/31 05:25:51;;;;;;;2.10;2.00;;;;;;;-5.56;100.00;40014.03;5012335;28;20174;-69
2024/01/31 05:28:16;;;;;;;1.83;1.73;;;;;;;-5.63;100.00;39002.81;5012247;28;20203;-70
2024/01/31 05:30:42;;;;;;;1.40;1.30;;;;;;;-5.23;100.00;39361.78;5012419;28;20716;-70
2024/01/31 05:33:07;;;;;;;2.07;1.90;;;;;;;-5.33;100.00;39025.69;5012050;28;20220;-70
2024/01/31 05:35:35;;;;;;;1.30;1.27;;;;;;;-5.72;100.00;38363.97;5011463;28;20184;-69
2024/01/31 05:38:02;;;;;;;1.47;1.37;;;;;;;-5.77;100.00;34568.81;5011380;28;20264;-70
2024/01/31 05:40:29;;;;;;;1.77;1.67;;;;;;;-5.32;100.00;33019.75;5012183;28;20178;-70
2024/01/31 05:42:54;;;;;;;1.60;1.50;;;;;;;-5.34;100.00;32071.03;5011880;28;20174;-71
2024/01/31 05:45:19;;;;;;;1.47;1.37;;;;;;;-5.20;100.00;32395.91;5012340;28;20545;-70
2024/01/31 05:47:45;;;;;;;1.50;1.40;;;;;;;-5.70;100.00;32679.00;5012082;28;20657;-72
2024/01/31 05:50:10;;;;;;;2.27;1.97;;;;;;;-5.33;100.00;32703.25;5011656;28;20188;-71
2024/01/31 05:52:36;;;;;;;1.40;1.30;;;;;;;-5.17;100.00;32081.66;5011673;28;20643;-70
2024/01/31 05:55:01;;;;;;;1.73;1.63;;;;;;;-5.49;100.00;30799.19;5018687;28;20315;-71
2024/01/31 05:57:26;;;;;;;1.60;1.50;;;;;;;-5.25;100.00;29866.59;5029929;28;20679;-70
2024/01/31 05:59:52;;;;;;;1.60;1.50;;;;;;;-5.01;100.00;28934.47;5031394;28;20172;-71
2024/01/31 06:02:17;;;;;;;1.43;1.33;;;;;;;-4.96;100.00;27990.28;5038035;28;20189;-70
2024/01/31 06:04:43;;;;;;;1.70;1.60;;;;;;;-5.10;100.00;28298.03;5030778;28;20180;-70
2024/01/31 06:07:10;;;;;;;1.97;1.87;;;;;;;-4.58;100.00;28959.63;5029285;28;20179;-72
2024/01/31 06:09:35;;;;;;;1.60;1.50;;;;;;;-4.87;100.00;30205.22;5030845;28;20156;-69
2024/01/31 06:12:02;;;;;;;1.80;1.70;;;;;;;-4.68;100.00;31480.84;5031114;28;20595;-71
2024/01/31 06:14:28;;;;;;;1.53;1.43;;;;;;;-4.68;100.00;34010.16;5030793;28;20285;-70
2024/01/31 06:16:53;;;;;;;1.93;1.83;;;;;;;-4.73;100.00;35905.19;5030921;28;20171;-71
2024/01/31 06:19:18;;;;;;;2.50;2.40;;;;;;;-4.30;100.00;36885.50;5030970;28;20548;-70
2024/01/31 06:21:44;;;;;;;1.70;1.60;;;;;;;-4.72;100.00;42352.25;5030286;28;20541;-70
2024/01/31 06:24:09;;;;;;;2.10;1.90;;;;;;;-4.39;100.00;45073.91;5030232;28;20168;-70
2024/01/31 06:26:39;;;;;;;1.70;1.60;;;;;;;-4.01;100.00;51008.53;5030259;28;20184;-71
2024/01/31 06:29:05;;;;;;;1.60;1.50;;;;;;;-4.19;100.00;53584.50;5030041;28;20625;-70
2024/01/31 06:31:35;;;;;;;2.50;1.87;;;;;;;-3.80;100.00;54935.88;5030464;28;20216;-70
2024/01/31 06:34:01;;;;;;;1.70;1.60;;;;;;;-3.85;100.00;54796.25;5030051;28;20252;-70
2024/01/31 06:36:26;;;;;;;1.73;1.63;;;;;;;-3.67;100.00;55815.59;5030093;28;20198;-71
2024/01/31 06:38:52;;;;;;;2.27;2.07;;;;;;;-3.51;100.00;56676.66;5030076;28;20552;-70
2024/01/31 06:41:18;;;;;;;2.07;1.93;;;;;;;-3.86;100.00;57031.66;5030356;28;20211;-70
2024/01/31 06:43:44;;;;;;;2.10;2.00;;;;;;;-3.42;100.00;57339.91;5029528;28;20184;-70
2024/01/31 06:46:10;;;;;;;1.87;1.77;;;;;;;-3.31;100.00;57593.63;5030273;28;20554;-70
2024/01/31 06:48:36;;;;;;;1.97;1.83;;;;;;;-3.19;100.00;57963.28;5028793;28;20241;-70
2024/01/31 06:51:02;;;;;;;1.97;1.87;;;;;;;-3.23;100.00;57963.38;5033427;28;20651;-72
2024/01/31 06:53:29;;;;;;;1.37;1.30;;;;;;;-3.18;100.00;58145.94;5034186;28;20187;-71
2024/01/31 06:55:55;;;;;;;1.40;1.37;;;;;;;-3.39;100.00;58130.63;5034437;28;20588;-70
2024/01/31 06:58:20;;;;;;;1.27;1.27;;;;;;;-2.87;100.00;58269.50;5033952;28;20179;-71
2024/01/31 07:00:45;;;;;;;2.13;2.00;;;;;;;-2.87;100.00;58459.22;5034037;28;20233;-72
2024/01/31 07:03:11;;;;;;;2.90;2.70;;;;;;;-3.13;100.00;58530.66;5034052;28;20177;-71
2024/01/31 07:05:37;;;;;;;1.23;1.23;;;;;;;-2.50;100.00;58573.47;5032785;28;20188;-71
2024/01/31 07:08:02;;;;;;;1.20;1.20;;;;;;;-2.75;100.00;58692.06;5035009;28;20173;-70
2024/01/31 07:10:27;;;;;;;1.30;1.30;;;;;;;-2.58;100.00;58804.50;5041091;28;20254;-70
2024/01/31 07:12:53;;;;;;;1.80;1.70;;;;;;;-2.30;100.00;58822.72;5033781;28;20179;-69
2024/01/31 07:15:21;;;;;;;1.27;1.27;;;;;;;-2.40;100.00;58922.25;5033547;28;20214;-71
2024/01/31 07:17:47;;;;;;;1.30;1.30;;;;;;;-2.35;100.00;58935.22;5032273;28;20331;-72
2024/01/31 07:20:13;;;;;;;10.93;2.30;;;;;;;-2.20;100.00;58971.19;5033640;28;20244;-71
2024/01/31 07:22:38;;;;;;;1.27;1.27;;;;;;;-2.07;100.00;59017.41;5033864;28;20264;-70
2024/01/31 07:25:04;;;;;;;1.77;1.67;;;;;;;-1.88;100.00;59041.41;5033715;28;20307;-71
2024/01/31 07:27:29;;;;;;;1.33;1.33;;;;;;;-2.07;100.00;59157.44;5033648;28;20175;-70
2024/01/31 07:29:55;;;;;;;1.60;1.50;;;;;;;-1.51;100.00;59276.78;5034041;28;20324;-70
2024/01/31 07:32:20;;;;;;;2.10;1.90;;;;;;;-1.85;100.00;59249.78;5033054;28;20205;-70
2024/01/31 07:34:45;;;;;;;2.17;1.83;;;;;;;-1.75;100.00;59237.75;5033316;28;20213;-70
2024/01/31 07:37:11;;;;;;;1.50;1.40;;;;;;;-1.48;100.00;59324.63;5033615;28;20380;-71
2024/01/31 07:39:36;;;;;;;1.53;1.40;;;;;;;-1.44;100.00;59354.06;5032051;28;20198;-72
2024/01/31 07:42:02;;;;;;;1.10;1.10;;;;;;;-1.02;100.00;59422.53;5032169;28;20309;-72
2024/01/31 07:44:27;;;;;;;1.37;1.27;;;;;;;-1.24;100.00;59455.75;5033510;28;20270;-72
2024/01/31 07:46:52;;;;;;;1.20;1.20;;;;;;;-1.41;100.00;59435.53;5032973;28;20237;-70
2024/01/31 07:49:18;;;;;;;2.20;1.67;;;;;;;-0.94;100.00;59556.63;5031610;28;20358;-72
2024/01/31 07:51:44;;;;;;;1.10;1.10;;;;;;;-0.84;100.00;59562.72;5033272;28;20646;-71
2024/01/31 07:54:10;;;;;;;1.70;1.60;;;;;;;-0.81;100.00;59452.72;5033012;28;20261;-70
2024/01/31 07:56:35;;;;;;;1.17;1.17;;;;;;;-0.46;100.00;59531.59;5033139;28;20175;-72
2024/01/31 07:59:01;;;;;;;1.60;1.50;;;;;;;-0.47;100.00;59535.53;5033291;28;20592;-71
2024/01/31 08:01:27;;;;;;;1.20;1.20;;;;;;;-0.42;100.00;59581.19;5031716;28;20199;-72
2024/01/31 08:03:53;;;;;;;1.20;1.20;;;;;;;-0.10;100.00;59616.69;5031622;28;20219;-70
2024/01/31 08:06:18;;;;;;;1.60;1.50;;;;;;;-0.10;100.00;59594.13;5031311;28;20177;-71
2024/01/31 08:08:45;;;;;;;1.40;1.33;;;;;;;0.00;100.00;59687.47;5031682;28;20200;-72
2024/01/31 08:11:11;;;;;;;1.30;1.30;;;;;;;-0.08;100.00;59628.94;5031177;28;20179;-71
2024/01/31 08:13:41;;;;;;;2.20;2.03;;;;;;;0.06;100.00;59645.88;5031261;28;20322;-70
2024/01/31 08:16:06;;;;;;;1.70;1.60;;;;;;;0.29;100.00;59704.06;5038188;28;20250;-71
2024/01/31 08:18:32;;;;;;;1.77;1.67;;;;;;;0.21;100.00;59758.47;5031196;28;20657;-72
2024/01/31 08:20:57;;;;;;;1.73;1.63;;;;;;;0.54;100.00;59784.03;5030366;28;20217;-71
2024/01/31 08:23:23;;;;;;;1.53;1.40;;;;;;;0.55;100.00;59757.53;5031643;28;20221;-72
2024/01/31 08:25:49;;;;;;;1.90;1.80;;;;;;;0.91;100.00;59805.13;5033221;28;20263;-71
2024/01/31 08:28:14;;;;;;;1.07;1.07;;;;;;;0.74;100.00;59803.78;5033421;28;20531;-72
2024/01/31 08:30:40;;;;;;;1.13;1.13;;;;;;;0.76;100.00;59804.03;5032802;28;20215;-72
2024/01/31 08:33:05;;;;;;;1.50;1.40;;;;;;;1.20;100.00;59844.91;5032878;28;20754;-71
2024/01/31 08:35:31;;;;;;;1.17;1.17;;;;;;;1.43;100.00;59902.13;5032847;28;20179;-70
2024/01/31 08:37:56;;;;;;;1.83;1.73;;;;;;;1.16;100.00;59878.19;5031407;28;20176;-72
2024/01/31 08:40:21;;;;;;;1.30;1.27;;;;;;;1.53;100.00;59933.94;5032991;28;20179;-72
2024/01/31 08:42:47;;;;;;;2.40;2.00;;;;;;;1.55;100.00;59978.94;5032646;28;20206;-72
2024/01/31 08:45:13;;;;;;;1.50;1.40;;;;;;;1.69;100.00;59900.91;5030808;28;20642;-71
2024/01/31 08:47:39;;;;;;;1.90;1.80;;;;;;;1.73;100.00;59953.16;5032952;28;20682;-72
2024/01/31 08:50:05;;;;;;;3.70;1.60;;;;;;;1.73;100.00;59943.09;5031544;28;20189;-72
2024/01/31 08:52:30;;;;;;;1.50;1.40;;;;;;;1.91;100.00;60005.94;5033009;28;20214;-71
2024/01/31 08:54:55;;;;;;;4.37;1.70;;;;;;;2.02;100.00;59974.88;5031189;28;20299;-72
2024/01/31 08:57:21;;;;;;;1.63;1.40;;;;;;;2.14;100.00;59973.69;5032820;28;20179;-73
2024/01/31 08:59:46;;;;;;;1.50;1.40;;;;;;;1.99;100.00;59974.06;5032089;28;20647;-72
2024/01/31 09:02:12;;;;;;;3.60;2.20;;;;;;;2.42;100.00;60029.00;5032656;28;20198;-70
2024/01/31 09:04:37;;;;;;;1.30;1.30;;;;;;;2.31;100.00;60052.00;5032251;28;20258;-72
2024/01/31 09:07:03;;;;;;;1.83;1.50;;;;;;;2.26;100.00;59986.53;5032582;28;20259;-72
2024/01/31 09:09:30;;;;;;;2.70;1.90;;;;;;;2.51;100.00;60036.53;5032414;28;20660;-72
2024/01/31 09:11:55;;;;;;;2.13;1.93;;;;;;;2.58;100.00;60218.22;5032071;28;20171;-72
2024/01/31 09:14:20;;;;;;;3.33;1.93;;;;;;;2.61;100.00;60040.13;5029331;28;20199;-71
2024/01/31 09:16:46;;;;;;;1.30;1.23;;;;;;;2.68;100.00;60086.28;5030970;28;20179;-70
2024/01/31 09:19:11;;;;;;;2.17;1.97;;;;;;;2.92;100.00;60061.56;5032412;28;20183;-71
2024/01/31 09:21:37;;;;;;;1.20;1.20;;;;;;;3.10;99.74;60122.00;5039429;28;20665;-72
2024/01/31 09:24:02;;;;;;;1.70;1.60;;;;;;;3.00;100.00;60219.28;5032276;28;20187;-72
2024/01/31 09:26:28;;;;;;;1.33;1.33;;;;;;;3.66;97.52;60175.88;5032033;28;20669;-70
2024/01/31 09:28:53;;;;;;;1.17;1.17;;;;;;;3.01;96.02;60097.38;5032127;28;20175;-72
2024/01/31 09:31:23;;;;;;;3.37;1.90;;;;;;;3.61;95.44;60153.19;5031665;28;20186;-70
2024/01/31 09:33:49;;;;;;;1.50;1.40;;;;;;;3.58;94.14;60134.13;5032021;28;20590;-73
2024/01/31 09:36:15;;;;;;;1.93;1.77;;;;;;;3.84;92.78;60153.06;5031721;28;20171;-72
2024/01/31 09:38:40;;;;;;;1.80;1.70;;;;;;;3.33;90.46;60157.25;5032073;28;20178;-71
2024/01/31 09:41:05;;;;;;;1.50;1.40;;;;;;;3.74;89.93;60217.66;5031704;28;20182;-72
2024/01/31 09:43:31;;;;;;;1.70;1.60;;;;;;;3.42;88.02;60160.28;5031454;28;20202;-70
2024/01/31 09:45:59;;;;;;;1.20;1.20;;;;;;;4.18;85.50;60215.78;5031831;28;20179;-72
2024/01/31 09:48:25;;;;;;;2.17;1.97;;;;;;;4.01;84.64;60215.03;5032039;28;20175;-71
2024/01/31 09:50:50;;;;;;;2.10;1.50;;;;;;;4.29;83.92;60212.94;5031499;28;20167;-70
2024/01/31 09:53:19;;;;;;;1.70;1.60;;;;;;;4.52;84.95;60258.31;5031612;28;20197;-71
2024/01/31 09:55:44;;;;;;;1.80;1.70;;;;;;;4.44;84.66;60235.31;5031489;28;20172;-71
2024/01/31 09:58:10;;;;;;;2.07;1.97;;;;;;;4.66;84.39;60231.00;5031521;28;20176;-71
2024/01/31 10:00:37;;;;;;;1.57;1.47;;;;;;;4.92;83.96;60290.41;5031560;28;20190;-71
2024/01/31 10:03:04;;;;;;;1.47;1.40;;;;;;;4.79;81.33;60275.88;5031110;28;20175;-72
2024/01/31 10:05:30;;;;;;;1.70;1.60;;;;;;;4.86;80.07;60283.69;5031310;28;20226;-71
2024/01/31 10:08:02;;;;;;;1.93;1.67;;;;;;;5.12;77.76;60276.81;5031086;28;20207;-71
2024/01/31 10:10:28;;;;;;;1.60;1.50;;;;;;;4.95;76.46;60472.88;5029694;28;20193;-71
2024/01/31 10:12:54;;;;;;;1.60;1.50;;;;;;;4.94;76.66;60398.94;5031447;28;20262;-71
2024/01/31 10:15:20;;;;;;;1.07;1.07;;;;;;;5.23;76.42;60327.66;5030801;28;20643;-71
2024/01/31 10:17:45;;;;;;;2.03;1.90;;;;;;;4.88;74.15;60286.50;5030216;28;20179;-71
2024/01/31 10:20:13;;;;;;;1.57;1.47;;;;;;;4.77;73.79;60324.78;5031282;28;20254;-71
2024/01/31 10:22:39;;;;;;;1.30;1.20;;;;;;;4.82;74.13;60477.09;5031132;28;20646;-71
2024/01/31 10:25:08;;;;;;;2.00;1.77;;;;;;;4.90;74.76;60283.13;5037471;28;20189;-70
2024/01/31 10:27:35;;;;;;;1.93;1.57;;;;;;;4.78;73.62;60224.16;5033087;28;20693;-71
2024/01/31 10:30:07;;;;;;;1.40;1.30;;;;;;;4.83;73.78;60288.50;5031251;28;20257;-72
2024/01/31 10:32:35;;;;;;;1.83;1.60;;;;;;;5.09;72.53;60253.78;5030992;28;20231;-73
2024/01/31 10:35:03;;;;;;;1.60;1.50;;;;;;;4.92;72.71;60277.78;5031003;28;20573;-71
2024/01/31 10:37:29;;;;;;;1.67;1.57;;;;;;;5.41;72.54;60359.34;5030698;28;20715;-73
2024/01/31 10:39:55;;;;;;;3.73;2.10;;;;;;;5.71;68.31;60347.34;5030019;28;20274;-72
2024/01/31 10:42:22;;;;;;;1.63;1.53;;;;;;;5.73;70.01;60582.66;5030939;28;20207;-71
2024/01/31 10:44:48;;;;;;;1.60;1.50;;;;;;;5.46;70.65;60294.03;5029481;28;20650;-71
2024/01/31 10:47:14;;;;;;;1.20;1.20;;;;;;;5.62;72.29;60370.19;5029506;28;20171;-72
2024/01/31 10:49:39;;;;;;;1.60;1.50;;;;;;;6.04;69.94;60556.13;5030885;28;20195;-72
2024/01/31 10:52:08;;;;;;;1.47;1.33;;;;;;;5.88;69.67;60586.88;5030753;28;20175;-72
2024/01/31 10:54:38;;;;;;;1.80;1.70;;;;;;;6.02;70.34;60602.59;5030373;28;20203;-71
2024/01/31 10:57:06;;;;;;;1.33;1.33;;;;;;;6.11;70.07;60389.63;5030589;28;20190;-70
2024/01/31 10:59:37;;;;;;;1.70;1.60;;;;;;;6.00;69.12;60334.25;5030513;28;20171;-71
2024/01/31 11:02:03;;;;;;;2.37;2.20;;;;;;;6.28;67.93;60394.88;5029278;28;20209;-71
2024/01/31 11:04:29;;;;;;;1.40;1.30;;;;;;;6.54;67.74;60517.88;5030281;28;20183;-72
2024/01/31 11:07:00;;;;;;;2.37;1.67;;;;;;;6.57;66.80;60455.84;5028958;28;20202;-72
2024/01/31 11:09:26;;;;;;;1.17;1.17;;;;;;;6.00;64.99;60407.16;5030359;28;20250;-72
2024/01/31 11:12:05;;;;;;;1.77;1.67;;;;;;;5.95;66.69;60373.69;5030347;28;20278;-71
2024/01/31 11:14:33;;;;;;;2.03;1.80;;;;;;;6.06;65.92;60371.34;5029433;28;20200;-71
2024/01/31 11:17:12;;;;;;;1.47;1.40;;;;;;;5.74;65.16;60315.25;5030066;28;20198;-70
2024/01/31 11:19:59;;;;;;;1.53;1.43;;;;;;;6.00;64.79;60395.06;5028807;28;20191;-71
2024/01/31 11:22:25;;;;;;;1.37;1.37;;;;;;;6.07;63.79;60384.59;5061947;28;20187;-70
2024/01/31 11:24:59;;;;;;;1.50;1.40;;;;;;;6.19;62.45;60392.97;5029110;28;20175;-71